createdAt,value
2019-03-20T00:04:21.259Z,10.70
2019-03-20T00:09:30.365Z,9.57
2019-03-20T00:14:40.370Z,17.97
2019-03-20T00:19:44.059Z,16.13
2019-03-20T00:24:47.375Z,13.40
2019-03-20T00:29:55.711Z,11.17
2019-03-20T00:35:01.127Z,13.23
2019-03-20T00:40:07.199Z,12.00
2019-03-20T00:45:15.159Z,12.53
2019-03-20T00:50:19.283Z,13.20
2019-03-20T00:55:22.806Z,12.07
2019-03-20T01:00:26.167Z,7.50
2019-03-20T01:05:29.693Z,10.87
2019-03-20T01:10:32.991Z,11.20
2019-03-20T01:15:36.271Z,12.30
2019-03-20T01:20:39.627Z,11.40
2019-03-20T01:25:43.153Z,13.50
2019-03-20T01:30:46.447Z,19.60
2019-03-20T01:35:49.750Z,12.83
2019-03-20T01:40:53.045Z,10.63
2019-03-20T01:45:56.564Z,10.47
2019-03-20T01:51:15.237Z,11.33
2019-03-20T01:56:18.947Z,12.30
2019-03-20T02:01:22.473Z,13.83
2019-03-20T02:06:26.023Z,10.63
2019-03-20T02:11:29.571Z,10.90
2019-03-20T02:16:33.218Z,10.83
2019-03-20T02:21:36.863Z,16.50
2019-03-20T02:26:40.403Z,11.67
2019-03-20T02:31:43.953Z,12.83
2019-03-20T02:36:47.268Z,12.43
2019-03-20T02:41:50.914Z,13.23
2019-03-20T02:46:54.207Z,18.20
2019-03-20T02:51:57.497Z,15.93
2019-03-20T02:57:00.798Z,12.87
2019-03-20T03:02:04.354Z,10.47
2019-03-20T03:07:07.644Z,12.53
2019-03-20T03:12:10.937Z,12.07
2019-03-20T03:17:14.209Z,15.03
2019-03-20T03:22:17.728Z,13.40
2019-03-20T03:27:21.099Z,14.70
2019-03-20T03:32:24.392Z,12.60
2019-03-20T03:37:27.697Z,11.30
2019-03-20T03:42:31.250Z,12.43
2019-03-20T03:47:34.547Z,13.37
2019-03-20T03:52:38.089Z,14.80
2019-03-20T03:57:41.413Z,11.33
2019-03-20T04:02:44.703Z,13.20
2019-03-20T04:07:48.235Z,14.73
2019-03-20T04:12:51.523Z,12.23
2019-03-20T04:17:54.814Z,15.50
2019-03-20T04:22:58.111Z,10.77
2019-03-20T04:28:01.430Z,15.90
2019-03-20T04:33:04.787Z,10.90
2019-03-20T04:38:08.316Z,12.23
2019-03-20T04:43:11.584Z,15.70
2019-03-20T04:48:14.853Z,9.63
2019-03-20T04:53:18.393Z,10.43
2019-03-20T04:58:21.961Z,12.53
2019-03-20T05:03:25.517Z,10.43
2019-03-20T05:08:28.820Z,13.07
2019-03-20T05:13:32.100Z,18.17
2019-03-20T05:18:35.407Z,12.23
2019-03-20T05:23:38.679Z,9.93
2019-03-20T05:28:41.978Z,10.47
2019-03-20T05:33:45.244Z,11.17
2019-03-20T05:38:48.539Z,10.00
2019-03-20T05:43:52.056Z,8.60
2019-03-20T05:48:55.341Z,11.37
2019-03-20T05:53:58.865Z,7.60
2019-03-20T05:59:02.401Z,12.70
2019-03-20T06:04:05.935Z,8.97
2019-03-20T06:09:09.213Z,6.83
2019-03-20T06:14:12.504Z,11.10
2019-03-20T06:19:16.081Z,11.63
2019-03-20T06:24:19.602Z,8.90
2019-03-20T06:29:23.117Z,9.77
2019-03-20T06:34:26.404Z,10.83
2019-03-20T06:39:29.944Z,8.07
2019-03-20T06:44:33.233Z,9.83
2019-03-20T06:49:36.506Z,6.97
2019-03-20T06:54:39.790Z,11.93
2019-03-20T06:59:58.655Z,7.63
2019-03-20T07:05:32.333Z,7.13
2019-03-20T07:10:56.536Z,6.67
2019-03-20T07:15:59.824Z,8.57
2019-03-20T07:21:03.193Z,10.70
2019-03-20T07:26:06.601Z,5.73
2019-03-20T07:31:15.289Z,6.43
2019-03-20T07:36:15.233Z,9.27
2019-03-20T07:41:18.827Z,9.80
2019-03-20T07:46:22.359Z,11.23
2019-03-20T07:51:25.634Z,8.37
2019-03-20T07:56:29.158Z,7.67
2019-03-20T08:01:32.443Z,12.07
2019-03-20T08:06:35.722Z,7.03
2019-03-20T08:11:39.032Z,10.63
2019-03-20T08:16:42.586Z,11.80
2019-03-20T08:21:46.109Z,7.23
2019-03-20T08:26:49.400Z,9.53
2019-03-20T08:31:52.661Z,8.17
2019-03-20T08:36:56.192Z,8.57
2019-03-20T08:41:59.486Z,10.00
2019-03-20T08:47:02.759Z,7.27
2019-03-20T08:52:06.282Z,7.07
2019-03-20T08:57:09.825Z,7.90
2019-03-20T09:02:13.346Z,6.70
2019-03-20T09:07:16.636Z,11.03
2019-03-20T09:12:19.918Z,11.57
2019-03-20T09:17:23.448Z,8.57
2019-03-20T09:22:26.968Z,10.90
2019-03-20T09:27:30.494Z,9.90
2019-03-20T09:32:33.781Z,7.90
2019-03-20T09:37:37.300Z,8.27
2019-03-20T09:42:40.584Z,10.13
2019-03-20T09:47:44.011Z,10.00
2019-03-20T09:52:47.297Z,6.47
2019-03-20T09:57:50.884Z,10.33
2019-03-20T10:02:54.694Z,8.97
2019-03-20T10:07:57.982Z,10.77
2019-03-20T10:13:01.525Z,7.93
2019-03-20T10:18:04.956Z,12.60
2019-03-20T10:23:08.480Z,7.30
2019-03-20T10:28:12.062Z,10.13
2019-03-20T10:33:16.718Z,11.10
2019-03-20T10:38:20.335Z,7.97
2019-03-20T10:43:23.870Z,7.97
2019-03-20T10:48:27.435Z,5.30
2019-03-20T10:53:31.091Z,2.97
2019-03-20T10:58:34.659Z,2.60
2019-03-20T11:03:38.182Z,2.73
2019-03-20T11:08:41.533Z,6.07
2019-03-20T11:13:45.057Z,5.83
2019-03-20T11:18:48.696Z,3.20
2019-03-20T11:23:52.242Z,4.43
2019-03-20T11:28:55.776Z,2.57
2019-03-20T11:33:59.313Z,1.93
2019-03-20T11:39:03.393Z,4.43
2019-03-20T11:44:06.989Z,1.60
2019-03-20T11:49:10.275Z,2.80
2019-03-20T11:54:13.813Z,3.70
2019-03-20T11:59:17.123Z,1.70
2019-03-20T12:04:20.381Z,2.83
2019-03-20T12:09:23.959Z,5.57
2019-03-20T12:14:27.246Z,4.00
2019-03-20T12:19:30.540Z,1.37
2019-03-20T12:24:34.071Z,4.27
2019-03-20T12:29:37.621Z,2.70
2019-03-20T12:34:41.148Z,2.10
2019-03-20T12:39:52.788Z,3.43
2019-03-20T12:44:49.437Z,3.20
2019-03-20T12:49:52.974Z,2.97
2019-03-20T12:54:56.257Z,1.40
2019-03-20T12:59:59.835Z,1.20
2019-03-20T13:05:04.195Z,0.90
2019-03-20T13:10:10.593Z,1.03
2019-03-20T13:15:18.756Z,3.40
2019-03-20T13:20:22.286Z,1.40
2019-03-20T13:25:25.896Z,3.00
2019-03-20T13:30:40.268Z,4.03
2019-03-20T13:35:43.844Z,5.23
2019-03-20T13:40:47.085Z,3.27
2019-03-20T13:45:50.627Z,3.90
2019-03-20T13:50:53.999Z,3.50
2019-03-20T13:55:57.518Z,1.47
2019-03-20T14:01:02.729Z,4.17
2019-03-20T14:06:06.258Z,4.37
2019-03-20T14:11:09.543Z,3.23
2019-03-20T14:16:13.144Z,5.60
2019-03-20T14:21:16.675Z,3.63
2019-03-20T14:26:19.987Z,3.53
2019-03-20T14:31:23.523Z,3.40
2019-03-20T14:36:27.073Z,6.07
2019-03-20T14:41:30.345Z,5.33
2019-03-20T14:46:33.629Z,2.67
2019-03-20T14:51:37.157Z,3.67
2019-03-20T14:56:40.465Z,4.73
2019-03-20T15:01:43.752Z,3.87
2019-03-20T15:06:47.247Z,6.13
2019-03-20T15:11:50.519Z,5.57
2019-03-20T15:16:53.842Z,6.13
2019-03-20T15:21:57.360Z,5.63
2019-03-20T15:27:00.895Z,4.93
2019-03-20T15:32:04.184Z,4.97
2019-03-20T15:37:07.718Z,3.90
2019-03-20T15:42:11.006Z,2.63
2019-03-20T15:47:14.290Z,4.43
2019-03-20T15:52:17.566Z,3.97
2019-03-20T15:57:20.875Z,5.00
2019-03-20T16:02:24.173Z,4.67
2019-03-20T16:07:30.185Z,4.07
2019-03-20T16:12:34.318Z,4.10
2019-03-20T16:17:37.718Z,5.30
2019-03-20T16:22:41.262Z,5.70
2019-03-20T16:27:44.585Z,2.67
2019-03-20T16:32:49.659Z,5.00
2019-03-20T16:37:53.270Z,4.30
2019-03-20T16:42:56.599Z,4.10
2019-03-20T16:47:59.912Z,4.67
2019-03-20T16:53:04.059Z,4.80
2019-03-20T16:58:07.434Z,4.27
2019-03-20T17:03:10.975Z,3.67
2019-03-20T17:08:16.087Z,1.80
2019-03-20T17:13:19.392Z,5.23
2019-03-20T17:18:22.932Z,5.67
2019-03-20T17:23:26.515Z,3.23
2019-03-20T17:28:29.905Z,1.83
2019-03-20T17:33:33.432Z,2.07
2019-03-20T17:38:36.759Z,2.27
2019-03-20T17:43:40.249Z,3.83
2019-03-20T17:48:43.701Z,2.37
2019-03-20T17:53:47.231Z,3.83
2019-03-20T17:58:50.514Z,3.40
2019-03-20T18:03:54.059Z,2.33
2019-03-20T18:08:57.576Z,2.50
2019-03-20T18:14:01.131Z,4.10
2019-03-20T18:19:04.420Z,4.03
2019-03-20T18:24:07.712Z,5.90
2019-03-20T18:29:11.002Z,5.70
2019-03-20T18:34:14.284Z,3.00
2019-03-20T18:39:17.586Z,5.00
2019-03-20T18:44:20.892Z,4.20
2019-03-20T18:49:24.186Z,8.93
2019-03-20T18:54:27.780Z,5.37
2019-03-20T18:59:31.259Z,3.17
2019-03-20T19:04:34.835Z,4.03
2019-03-20T19:09:38.361Z,11.27
2019-03-20T19:14:41.675Z,23.43
2019-03-20T19:19:44.950Z,18.03
2019-03-20T19:24:48.251Z,8.07
2019-03-20T19:29:51.544Z,8.23
2019-03-20T19:34:55.075Z,31.73
2019-03-20T19:39:58.363Z,11.40
2019-03-20T19:45:01.673Z,11.23
2019-03-20T19:50:11.387Z,15.03
2019-03-20T19:55:18.150Z,11.07
2019-03-20T20:00:28.196Z,5.53
2019-03-20T20:05:31.713Z,5.03
2019-03-20T20:10:35.032Z,3.83
2019-03-20T20:15:38.549Z,5.07
2019-03-20T20:20:42.211Z,4.13
2019-03-20T20:25:45.740Z,5.73
2019-03-20T20:30:49.037Z,4.30
2019-03-20T20:35:52.323Z,4.07
2019-03-20T20:40:57.146Z,4.50
2019-03-20T20:46:00.763Z,4.07
2019-03-20T20:51:04.286Z,8.23
2019-03-20T20:56:07.827Z,4.20
2019-03-20T21:01:11.188Z,6.17
2019-03-20T21:06:14.471Z,5.53
2019-03-20T21:11:17.988Z,5.57
2019-03-20T21:16:21.271Z,4.23
2019-03-20T21:21:27.661Z,7.07
2019-03-20T21:26:52.437Z,8.33
2019-03-20T21:32:07.344Z,4.30
2019-03-20T21:37:54.777Z,5.53
2019-03-20T21:43:34.528Z,6.47
2019-03-20T21:48:42.044Z,3.57
2019-03-20T21:54:19.054Z,8.60
2019-03-20T21:59:58.769Z,9.20
2019-03-20T22:05:02.078Z,6.10
2019-03-20T22:10:28.709Z,8.20
2019-03-20T22:15:55.099Z,10.77
2019-03-20T22:21:09.015Z,8.60
2019-03-20T22:26:35.052Z,7.83
2019-03-20T22:31:47.075Z,7.97
2019-03-20T22:36:50.376Z,10.10
2019-03-20T22:42:16.373Z,9.97
2019-03-20T22:47:55.444Z,9.90
2019-03-20T22:53:35.132Z,7.90
2019-03-20T22:58:45.293Z,8.47
2019-03-20T23:03:51.759Z,8.87
2019-03-20T23:08:59.860Z,12.43
2019-03-20T23:14:21.373Z,11.13
2019-03-20T23:19:24.914Z,12.93
2019-03-20T23:29:53.918Z,8.13
2019-03-20T23:35:11.025Z,9.63
2019-03-20T23:40:19.064Z,12.10
2019-03-20T23:45:23.921Z,10.47
2019-03-20T23:50:29.447Z,9.63
2019-03-20T23:55:34.363Z,8.60
